createdAt,value
2019-06-27T00:00:06.371Z,59.71
2019-06-27T00:01:06.360Z,59.91
2019-06-27T00:02:06.336Z,59.81
2019-06-27T00:03:11.351Z,59.61
2019-06-27T00:04:06.317Z,59.81
2019-06-27T00:05:06.321Z,59.52
2019-06-27T00:06:06.292Z,59.61
2019-06-27T00:07:06.303Z,59.61
2019-06-27T00:08:06.282Z,59.91
2019-06-27T00:09:06.265Z,59.94
2019-06-27T00:10:06.266Z,59.64
2019-06-27T00:11:06.431Z,59.84
2019-06-27T00:12:06.234Z,59.84
2019-06-27T00:13:06.230Z,60.33
2019-06-27T00:14:11.256Z,60.17
2019-06-27T00:15:06.222Z,60.46
2019-06-27T00:16:06.191Z,60.33
2019-06-27T00:17:06.176Z,60.14
2019-06-27T00:18:06.175Z,60.33
2019-06-27T00:19:06.154Z,60.36
2019-06-27T00:20:06.174Z,60.14
2019-06-27T00:21:06.142Z,60.56
2019-06-27T00:22:06.128Z,60.36
2019-06-27T00:23:06.110Z,60.56
2019-06-27T00:24:06.107Z,60.66
2019-06-27T00:25:11.131Z,60.96
2019-06-27T00:26:06.075Z,60.96
2019-06-27T00:27:06.071Z,61.25
2019-06-27T00:28:06.070Z,61.16
2019-06-27T00:29:06.046Z,61.25
2019-06-27T00:30:06.073Z,61.16
2019-06-27T00:31:06.033Z,61.48
2019-06-27T00:32:06.012Z,61.48
2019-06-27T00:33:06.002Z,61.75
2019-06-27T00:34:06.000Z,61.38
2019-06-27T00:35:05.982Z,61.48
2019-06-27T00:36:11.007Z,61.58
2019-06-27T00:37:05.973Z,61.88
2019-06-27T00:38:05.955Z,61.58
2019-06-27T00:39:05.948Z,61.48
2019-06-27T00:40:05.939Z,61.58
2019-06-27T00:41:05.947Z,61.58
2019-06-27T00:42:05.917Z,61.58
2019-06-27T00:43:05.892Z,62.27
2019-06-27T00:44:05.880Z,62.20
2019-06-27T00:45:05.871Z,61.91
2019-06-27T00:46:05.892Z,62.07
2019-06-27T00:47:10.872Z,61.68
2019-06-27T00:48:05.860Z,62.27
2019-06-27T00:49:05.826Z,62.70
2019-06-27T00:50:05.837Z,62.57
2019-06-27T00:51:05.838Z,62.60
2019-06-27T00:52:05.823Z,62.79
2019-06-27T00:53:05.791Z,62.60
2019-06-27T00:54:05.791Z,62.79
2019-06-27T00:55:05.769Z,63.49
2019-06-27T00:56:05.830Z,63.29
2019-06-27T00:57:14.041Z,63.19
2019-06-27T00:58:11.765Z,63.19
2019-06-27T00:59:05.728Z,63.52
2019-06-27T01:00:05.766Z,63.68
2019-06-27T01:01:05.739Z,63.62
2019-06-27T01:02:05.684Z,64.01
2019-06-27T01:03:05.686Z,63.52
2019-06-27T01:04:05.665Z,63.42
2019-06-27T01:05:05.688Z,63.92
2019-06-27T01:06:05.670Z,64.01
2019-06-27T01:07:05.632Z,64.31
2019-06-27T01:08:05.625Z,64.11
2019-06-27T01:09:10.643Z,64.01
2019-06-27T01:10:05.626Z,64.01
2019-06-27T01:11:05.621Z,63.71
2019-06-27T01:12:05.597Z,64.11
2019-06-27T01:13:05.569Z,63.95
2019-06-27T01:14:05.556Z,63.82
2019-06-27T01:15:05.570Z,63.82
2019-06-27T01:16:05.603Z,64.44
2019-06-27T01:17:05.535Z,63.52
2019-06-27T01:18:05.537Z,64.64
2019-06-27T01:19:05.503Z,64.44
2019-06-27T01:20:10.527Z,64.34
2019-06-27T01:21:05.498Z,63.85
2019-06-27T01:22:05.485Z,64.74
2019-06-27T01:23:05.457Z,65.23
2019-06-27T01:24:05.449Z,65.23
2019-06-27T01:25:05.441Z,65.03
2019-06-27T01:26:05.425Z,64.97
2019-06-27T01:27:05.434Z,65.17
2019-06-27T01:28:05.421Z,65.36
2019-06-27T01:29:05.403Z,65.33
2019-06-27T01:30:05.386Z,65.46
2019-06-27T01:31:10.412Z,65.66
2019-06-27T01:32:05.373Z,65.66
2019-06-27T01:33:05.357Z,65.86
2019-06-27T01:34:05.359Z,65.95
2019-06-27T01:35:05.337Z,65.76
2019-06-27T01:36:05.374Z,65.76
2019-06-27T01:37:05.319Z,66.06
2019-06-27T01:38:05.299Z,66.28
2019-06-27T01:39:05.295Z,66.06
2019-06-27T01:40:05.275Z,66.19
2019-06-27T01:41:05.283Z,66.19
2019-06-27T01:42:10.297Z,66.35
2019-06-27T01:43:05.239Z,66.25
2019-06-27T01:44:05.243Z,66.28
2019-06-27T01:45:05.236Z,66.68
2019-06-27T01:46:05.233Z,66.46
2019-06-27T01:47:05.211Z,66.78
2019-06-27T01:48:05.184Z,66.78
2019-06-27T01:49:05.171Z,66.78
2019-06-27T01:50:05.163Z,67.68
2019-06-27T01:51:05.159Z,67.77
2019-06-27T01:52:05.152Z,67.18
2019-06-27T01:53:10.151Z,67.28
2019-06-27T01:54:05.115Z,66.98
2019-06-27T01:55:05.109Z,67.08
2019-06-27T01:56:05.094Z,67.18
2019-06-27T01:57:05.103Z,67.18
2019-06-27T01:58:05.084Z,67.11
2019-06-27T01:59:05.062Z,66.88
2019-06-27T02:00:05.059Z,67.50
2019-06-27T02:01:05.045Z,67.31
2019-06-27T02:02:05.041Z,67.41
2019-06-27T02:03:05.039Z,67.41
2019-06-27T02:04:10.038Z,66.98
2019-06-27T02:05:04.995Z,67.21
2019-06-27T02:06:04.989Z,67.28
2019-06-27T02:07:05.004Z,67.41
2019-06-27T02:08:05.802Z,67.11
2019-06-27T02:09:04.991Z,67.11
2019-06-27T02:10:05.012Z,67.31
2019-06-27T02:11:05.013Z,67.21
2019-06-27T02:12:04.982Z,67.90
2019-06-27T02:13:05.004Z,67.90
2019-06-27T02:14:04.919Z,67.71
2019-06-27T02:15:09.921Z,67.80
2019-06-27T02:16:04.884Z,67.71
2019-06-27T02:17:04.863Z,67.71
2019-06-27T02:18:04.862Z,67.71
2019-06-27T02:19:04.852Z,68.30
2019-06-27T02:20:04.849Z,68.20
2019-06-27T02:21:04.825Z,68.10
2019-06-27T02:22:04.808Z,68.63
2019-06-27T02:23:04.809Z,68.24
2019-06-27T02:24:04.795Z,68.73
2019-06-27T02:25:04.792Z,68.63
2019-06-27T02:26:09.814Z,68.63
2019-06-27T02:27:04.759Z,68.63
2019-06-27T02:28:04.877Z,68.93
2019-06-27T02:29:04.732Z,68.04
2019-06-27T02:30:04.735Z,68.43
2019-06-27T02:31:04.725Z,68.63
2019-06-27T02:32:04.705Z,68.57
2019-06-27T02:33:04.724Z,68.37
2019-06-27T02:34:06.730Z,68.33
2019-06-27T02:35:04.691Z,68.73
2019-06-27T02:36:04.669Z,68.63
2019-06-27T02:37:09.760Z,68.37
2019-06-27T02:38:04.671Z,68.37
2019-06-27T02:39:04.655Z,68.76
2019-06-27T02:40:04.619Z,68.66
2019-06-27T02:41:04.606Z,68.96
2019-06-27T02:42:04.598Z,69.06
2019-06-27T02:43:04.605Z,68.96
2019-06-27T02:44:04.584Z,68.66
2019-06-27T02:45:04.575Z,68.76
2019-06-27T02:46:04.554Z,68.66
2019-06-27T02:47:04.547Z,69.09
2019-06-27T02:48:09.573Z,69.06
2019-06-27T02:49:04.519Z,68.96
2019-06-27T02:50:04.526Z,68.96
2019-06-27T02:51:04.499Z,68.96
2019-06-27T02:52:04.497Z,68.96
2019-06-27T02:53:04.495Z,68.99
2019-06-27T02:54:04.474Z,68.99
2019-06-27T02:55:04.459Z,68.66
2019-06-27T02:56:04.455Z,68.99
2019-06-27T02:57:04.445Z,68.96
2019-06-27T02:58:27.994Z,68.86
2019-06-27T02:59:10.464Z,68.96
2019-06-27T03:00:04.421Z,69.49
2019-06-27T03:01:04.397Z,69.39
2019-06-27T03:02:04.405Z,69.20
2019-06-27T03:03:04.369Z,69.29
2019-06-27T03:04:04.386Z,69.29
2019-06-27T03:05:04.355Z,69.49
2019-06-27T03:06:04.342Z,69.49
2019-06-27T03:07:04.345Z,69.92
2019-06-27T03:08:04.331Z,69.62
2019-06-27T03:09:04.315Z,69.72
2019-06-27T03:10:09.324Z,69.69
2019-06-27T03:11:04.283Z,69.29
2019-06-27T03:12:04.317Z,69.69
2019-06-27T03:13:04.301Z,69.49
2019-06-27T03:14:04.272Z,69.43
2019-06-27T03:15:04.238Z,69.89
2019-06-27T03:16:04.227Z,69.62
2019-06-27T03:17:04.228Z,69.92
2019-06-27T03:18:04.216Z,69.82
2019-06-27T03:19:04.216Z,70.22
2019-06-27T03:20:04.204Z,70.52
2019-06-27T03:21:09.193Z,70.42
2019-06-27T03:22:05.843Z,70.32
2019-06-27T03:23:04.175Z,70.42
2019-06-27T03:24:04.160Z,70.32
2019-06-27T03:25:04.153Z,70.32
2019-06-27T03:26:04.135Z,70.42
2019-06-27T03:27:04.128Z,70.52
2019-06-27T03:28:04.095Z,70.75
2019-06-27T03:29:04.112Z,70.65
2019-06-27T03:30:04.098Z,70.95
2019-06-27T03:31:04.126Z,70.85
2019-06-27T03:32:09.127Z,70.95
2019-06-27T03:33:04.056Z,70.85
2019-06-27T03:34:04.047Z,71.05
2019-06-27T03:35:04.042Z,71.05
2019-06-27T03:36:04.086Z,71.15
2019-06-27T03:37:04.007Z,70.95
2019-06-27T03:38:03.987Z,71.15
2019-06-27T03:39:03.996Z,71.05
2019-06-27T03:40:03.969Z,70.95
2019-06-27T03:41:03.973Z,70.85
2019-06-27T03:42:03.961Z,70.72
2019-06-27T03:43:09.117Z,70.75
2019-06-27T03:44:03.960Z,70.85
2019-06-27T03:45:03.939Z,70.72
2019-06-27T03:46:03.909Z,70.85
2019-06-27T03:47:03.892Z,70.55
2019-06-27T03:48:03.885Z,70.75
2019-06-27T03:49:03.921Z,70.75
2019-06-27T03:50:03.860Z,70.65
2019-06-27T03:51:03.857Z,70.65
2019-06-27T03:52:03.850Z,71.25
2019-06-27T03:53:03.829Z,71.45
2019-06-27T03:54:08.929Z,71.28
2019-06-27T03:55:03.811Z,71.28
2019-06-27T03:56:03.792Z,71.78
2019-06-27T03:57:03.834Z,71.68
2019-06-27T03:58:03.794Z,71.68
2019-06-27T03:59:12.267Z,71.38
2019-06-27T04:00:04.772Z,71.58
2019-06-27T04:01:03.746Z,71.38
2019-06-27T04:02:03.737Z,71.78
2019-06-27T04:03:03.713Z,71.18
2019-06-27T04:04:03.701Z,71.45
2019-06-27T04:05:08.739Z,71.38
2019-06-27T04:06:03.699Z,71.48
2019-06-27T04:07:03.680Z,71.28
2019-06-27T04:08:03.681Z,71.58
2019-06-27T04:09:03.666Z,71.58
2019-06-27T04:10:03.699Z,71.58
2019-06-27T04:11:03.639Z,72.08
2019-06-27T04:12:03.623Z,72.11
2019-06-27T04:13:03.628Z,71.88
2019-06-27T04:14:03.615Z,71.98
2019-06-27T04:15:03.603Z,71.78
2019-06-27T04:16:08.600Z,71.78
2019-06-27T04:17:03.596Z,71.98
2019-06-27T04:18:03.565Z,71.98
2019-06-27T04:19:03.543Z,71.68
2019-06-27T04:20:03.539Z,71.68
2019-06-27T04:21:03.526Z,71.78
2019-06-27T04:22:03.514Z,71.78
2019-06-27T04:23:03.504Z,71.68
2019-06-27T04:24:03.504Z,71.68
2019-06-27T04:25:03.530Z,72.08
2019-06-27T04:26:03.471Z,71.68
2019-06-27T04:27:08.495Z,71.58
2019-06-27T04:28:03.442Z,71.81
2019-06-27T04:29:03.450Z,71.78
2019-06-27T04:30:03.434Z,71.48
2019-06-27T04:31:03.412Z,71.38
2019-06-27T04:32:03.401Z,71.38
2019-06-27T04:33:03.390Z,71.28
2019-06-27T04:34:03.402Z,71.48
2019-06-27T04:35:03.386Z,71.28
2019-06-27T04:36:03.376Z,71.61
2019-06-27T04:37:03.373Z,71.81
2019-06-27T04:38:08.359Z,72.01
2019-06-27T04:39:03.345Z,71.81
2019-06-27T04:40:03.350Z,71.72
2019-06-27T04:41:03.307Z,71.81
2019-06-27T04:42:03.293Z,71.38
2019-06-27T04:43:05.827Z,71.38
2019-06-27T04:44:03.279Z,71.38
2019-06-27T04:45:03.295Z,71.18
2019-06-27T04:46:03.243Z,71.18
2019-06-27T04:47:03.243Z,71.18
2019-06-27T04:48:03.256Z,70.89
2019-06-27T04:49:12.944Z,70.78
2019-06-27T04:50:04.262Z,70.59
2019-06-27T04:51:03.198Z,70.48
2019-06-27T04:52:03.180Z,70.78
2019-06-27T04:53:03.178Z,70.68
2019-06-27T04:54:03.163Z,70.89
2019-06-27T04:55:04.276Z,70.78
2019-06-27T04:56:03.160Z,70.89
2019-06-27T04:57:03.143Z,70.78
2019-06-27T04:58:03.120Z,70.48
2019-06-27T04:59:03.100Z,70.48
2019-06-27T05:00:08.136Z,70.59
2019-06-27T05:01:03.114Z,70.39
2019-06-27T05:02:03.066Z,70.59
2019-06-27T05:03:03.057Z,70.59
2019-06-27T05:04:03.065Z,70.72
2019-06-27T05:05:03.080Z,70.68
2019-06-27T05:06:03.035Z,70.52
2019-06-27T05:07:03.030Z,70.52
2019-06-27T05:08:03.001Z,70.59
2019-06-27T05:09:02.992Z,70.72
2019-06-27T05:10:02.990Z,70.52
2019-06-27T05:11:08.014Z,70.48
2019-06-27T05:12:02.966Z,70.39
2019-06-27T05:13:02.955Z,70.29
2019-06-27T05:14:02.964Z,70.19
2019-06-27T05:15:02.924Z,69.89
2019-06-27T05:16:02.953Z,69.89
2019-06-27T05:17:02.934Z,69.89
2019-06-27T05:18:02.918Z,69.79
2019-06-27T05:19:02.887Z,69.69
2019-06-27T05:20:03.470Z,69.89
2019-06-27T05:21:02.889Z,69.89
2019-06-27T05:22:07.874Z,69.92
2019-06-27T05:23:02.861Z,70.12
2019-06-27T05:24:02.931Z,70.03
2019-06-27T05:25:02.819Z,69.79
2019-06-27T05:26:02.817Z,69.92
2019-06-27T05:27:02.807Z,69.62
2019-06-27T05:28:02.801Z,69.62
2019-06-27T05:29:02.777Z,69.69
2019-06-27T05:30:09.377Z,69.79
2019-06-27T05:31:03.772Z,69.59
2019-06-27T05:32:02.738Z,69.82
2019-06-27T05:33:07.756Z,69.73
2019-06-27T05:34:02.732Z,69.39
2019-06-27T05:35:02.737Z,69.92
2019-06-27T05:36:02.766Z,69.39
2019-06-27T05:37:02.685Z,69.49
2019-06-27T05:38:02.674Z,69.20
2019-06-27T05:39:02.661Z,69.59
2019-06-27T05:40:02.669Z,68.80
2019-06-27T05:41:02.671Z,68.70
2019-06-27T05:42:02.642Z,68.80
2019-06-27T05:43:02.615Z,68.70
2019-06-27T05:44:07.634Z,68.80
2019-06-27T05:45:02.601Z,68.50
2019-06-27T05:46:02.605Z,68.50
2019-06-27T05:47:02.610Z,68.40
2019-06-27T05:48:02.564Z,68.80
2019-06-27T05:49:02.552Z,68.27
2019-06-27T05:50:02.540Z,68.37
2019-06-27T05:51:02.557Z,68.27
2019-06-27T05:52:02.548Z,67.97
2019-06-27T05:53:02.554Z,68.27
2019-06-27T05:54:02.499Z,67.97
2019-06-27T05:55:07.509Z,68.16
2019-06-27T05:56:02.687Z,67.87
2019-06-27T05:57:02.468Z,68.07
2019-06-27T05:58:02.626Z,67.87
2019-06-27T05:59:02.502Z,68.37
2019-06-27T06:00:02.428Z,68.27
2019-06-27T06:01:02.437Z,68.46
2019-06-27T06:02:02.426Z,68.37
2019-06-27T06:03:02.452Z,68.07
2019-06-27T06:04:02.412Z,68.43
2019-06-27T06:05:02.372Z,68.57
2019-06-27T06:06:07.517Z,68.46
2019-06-27T06:07:02.487Z,68.76
2019-06-27T06:08:02.341Z,68.37
2019-06-27T06:09:02.348Z,68.46
2019-06-27T06:10:02.346Z,68.46
2019-06-27T06:11:02.312Z,68.33
2019-06-27T06:12:02.307Z,67.77
2019-06-27T06:13:02.316Z,67.97
2019-06-27T06:14:02.548Z,67.34
2019-06-27T06:15:02.278Z,67.64
2019-06-27T06:16:02.266Z,68.04
2019-06-27T06:17:07.359Z,67.34
2019-06-27T06:18:02.245Z,67.04
2019-06-27T06:19:02.232Z,67.24
2019-06-27T06:20:02.221Z,67.44
2019-06-27T06:21:02.208Z,67.41
2019-06-27T06:22:02.208Z,67.34
2019-06-27T06:23:02.175Z,67.41
2019-06-27T06:24:02.319Z,66.81
2019-06-27T06:25:02.188Z,66.91
2019-06-27T06:26:02.238Z,67.01
2019-06-27T06:27:02.165Z,66.91
2019-06-27T06:28:07.145Z,66.31
2019-06-27T06:29:02.111Z,66.11
2019-06-27T06:30:02.110Z,66.31
2019-06-27T06:31:02.092Z,66.28
2019-06-27T06:32:02.161Z,66.38
2019-06-27T06:33:02.111Z,65.69
2019-06-27T06:34:02.107Z,65.95
2019-06-27T06:35:02.047Z,65.78
2019-06-27T06:36:02.043Z,65.75
2019-06-27T06:37:02.053Z,65.16
2019-06-27T06:38:02.016Z,65.53
2019-06-27T06:39:07.039Z,64.83
2019-06-27T06:40:02.003Z,64.20
2019-06-27T06:41:01.987Z,63.78
2019-06-27T06:42:01.994Z,62.66
2019-06-27T06:43:01.988Z,61.64
2019-06-27T06:44:01.952Z,61.41
2019-06-27T06:45:02.304Z,61.31
2019-06-27T06:46:01.932Z,60.82
2019-06-27T06:47:01.929Z,60.59
2019-06-27T06:48:01.924Z,60.19
2019-06-27T06:49:01.933Z,60.69
2019-06-27T06:50:06.913Z,60.46
2019-06-27T06:51:01.890Z,60.04
2019-06-27T06:52:01.874Z,59.67
2019-06-27T06:53:01.853Z,60.72
2019-06-27T06:54:02.202Z,61.41
2019-06-27T06:55:02.004Z,61.74
2019-06-27T06:56:01.831Z,62.04
2019-06-27T06:57:01.833Z,62.33
2019-06-27T06:58:01.834Z,61.80
2019-06-27T06:59:01.862Z,61.02
2019-06-27T07:00:01.792Z,61.41
2019-06-27T07:01:06.790Z,60.82
2019-06-27T07:02:01.772Z,61.24
2019-06-27T07:03:01.745Z,62.13
2019-06-27T07:04:01.758Z,62.13
2019-06-27T07:05:01.728Z,61.67
2019-06-27T07:06:01.742Z,61.83
2019-06-27T07:07:01.768Z,61.87
2019-06-27T07:08:01.698Z,62.07
2019-06-27T07:09:01.684Z,62.26
2019-06-27T07:10:01.667Z,62.10
2019-06-27T07:11:01.658Z,63.06
2019-06-27T07:12:06.721Z,62.56
2019-06-27T07:13:01.666Z,61.99
2019-06-27T07:14:01.640Z,61.77
2019-06-27T07:15:01.641Z,61.90
2019-06-27T07:16:01.606Z,61.99
2019-06-27T07:17:01.686Z,61.60
2019-06-27T07:18:01.603Z,61.96
2019-06-27T07:19:01.571Z,62.36
2019-06-27T07:20:01.750Z,62.19
2019-06-27T07:21:01.751Z,61.60
2019-06-27T07:22:01.538Z,62.66
2019-06-27T07:23:06.584Z,62.07
2019-06-27T07:24:01.551Z,62.26
2019-06-27T07:25:01.515Z,61.99
2019-06-27T07:26:01.524Z,61.99
2019-06-27T07:27:02.388Z,62.49
2019-06-27T07:28:01.916Z,62.39
2019-06-27T07:29:01.642Z,61.70
2019-06-27T07:30:01.576Z,61.77
2019-06-27T07:31:13.789Z,61.50
2019-06-27T07:32:02.427Z,61.87
2019-06-27T07:33:01.511Z,61.96
2019-06-27T07:34:06.435Z,61.27
2019-06-27T07:35:01.451Z,61.37
2019-06-27T07:36:01.462Z,61.27
2019-06-27T07:37:01.397Z,60.97
2019-06-27T07:38:01.377Z,61.07
2019-06-27T07:39:01.355Z,61.50
2019-06-27T07:40:01.339Z,61.37
2019-06-27T07:41:01.336Z,61.21
2019-06-27T07:42:01.338Z,61.27
2019-06-27T07:43:01.332Z,61.18
2019-06-27T07:44:01.335Z,61.30
2019-06-27T07:45:06.338Z,61.37
2019-06-27T07:46:01.281Z,60.58
2019-06-27T07:47:01.285Z,60.78
2019-06-27T07:48:01.317Z,60.38
2019-06-27T07:49:01.245Z,61.18
2019-06-27T07:50:01.233Z,60.97
2019-06-27T07:51:01.270Z,61.27
2019-06-27T07:52:01.235Z,61.07
2019-06-27T07:53:01.235Z,60.68
2019-06-27T07:54:01.200Z,60.68
2019-06-27T07:55:01.197Z,60.81
2019-06-27T07:56:06.195Z,61.57
2019-06-27T07:57:01.192Z,61.10
2019-06-27T07:58:01.162Z,61.30
2019-06-27T07:59:01.170Z,60.78
2019-06-27T08:00:01.244Z,60.97
2019-06-27T08:01:01.121Z,61.10
2019-06-27T08:02:01.111Z,60.58
2019-06-27T08:03:01.101Z,60.38
2019-06-27T08:04:01.083Z,59.99
2019-06-27T08:05:01.082Z,60.48
2019-06-27T08:06:01.096Z,60.48
2019-06-27T08:07:06.081Z,60.58
2019-06-27T08:08:01.428Z,60.06
2019-06-27T08:09:01.198Z,59.99
2019-06-27T08:10:01.052Z,60.25
2019-06-27T08:11:01.015Z,59.56
2019-06-27T08:12:01.905Z,59.46
2019-06-27T08:13:01.910Z,59.27
2019-06-27T08:14:00.984Z,59.27
2019-06-27T08:15:01.030Z,59.36
2019-06-27T08:16:00.962Z,59.17
2019-06-27T08:17:00.949Z,59.06
2019-06-27T08:18:05.975Z,59.06
2019-06-27T08:19:00.933Z,58.45
2019-06-27T08:20:00.916Z,59.53
2019-06-27T08:21:00.903Z,58.34
2019-06-27T08:22:00.891Z,58.25
2019-06-27T08:23:00.894Z,59.23
2019-06-27T08:24:00.905Z,59.33
2019-06-27T08:25:00.871Z,58.07
2019-06-27T08:26:01.419Z,58.94
2019-06-27T08:27:00.884Z,58.34
2019-06-27T08:28:00.855Z,58.34
2019-06-27T08:29:05.848Z,59.33
2019-06-27T08:30:00.801Z,58.25
2019-06-27T08:31:00.789Z,58.64
2019-06-27T08:32:00.798Z,58.94
2019-06-27T08:33:00.764Z,58.64
2019-06-27T08:34:00.764Z,59.14
2019-06-27T08:35:00.765Z,59.36
2019-06-27T08:36:00.735Z,59.46
2019-06-27T08:37:00.724Z,59.23
2019-06-27T08:38:00.709Z,59.63
2019-06-27T08:39:00.726Z,59.44
2019-06-27T08:40:05.779Z,58.42
2019-06-27T08:41:00.684Z,58.74
2019-06-27T08:42:00.695Z,58.74
2019-06-27T08:43:00.680Z,58.45
2019-06-27T08:44:00.666Z,59.01
2019-06-27T08:45:00.647Z,59.50
2019-06-27T08:46:00.671Z,59.20
2019-06-27T08:47:00.618Z,58.51
2019-06-27T08:48:00.606Z,59.11
2019-06-27T08:49:00.610Z,58.59
2019-06-27T08:50:00.762Z,57.60
2019-06-27T08:51:05.613Z,57.70
2019-06-27T08:52:00.570Z,57.70
2019-06-27T08:53:01.596Z,57.60
2019-06-27T08:54:00.552Z,57.40
2019-06-27T08:55:00.545Z,57.07
2019-06-27T08:56:00.529Z,56.58
2019-06-27T08:57:00.554Z,56.81
2019-06-27T08:58:00.506Z,57.20
2019-06-27T08:59:00.497Z,56.68
2019-06-27T09:00:00.480Z,55.92
2019-06-27T09:01:00.475Z,55.99
2019-06-27T09:02:09.257Z,55.79
2019-06-27T09:03:00.440Z,55.79
2019-06-27T09:04:00.441Z,55.87
2019-06-27T09:05:00.425Z,55.87
2019-06-27T09:06:00.410Z,55.96
2019-06-27T09:07:00.499Z,55.96
2019-06-27T09:08:00.489Z,55.99
2019-06-27T09:09:00.413Z,56.09
2019-06-27T09:10:00.379Z,56.29
2019-06-27T09:11:00.361Z,55.87
2019-06-27T09:12:00.367Z,55.77
2019-06-27T09:13:05.394Z,55.96
2019-06-27T09:14:00.324Z,55.77
2019-06-27T09:15:00.335Z,55.57
2019-06-27T09:16:00.297Z,55.07
2019-06-27T09:17:00.294Z,55.27
2019-06-27T09:18:00.280Z,55.07
2019-06-27T09:19:00.268Z,55.18
2019-06-27T09:20:00.278Z,54.88
2019-06-27T09:21:00.264Z,54.55
2019-06-27T09:22:00.231Z,54.26
2019-06-27T09:23:00.264Z,53.59
2019-06-27T09:24:05.234Z,54.75
2019-06-27T09:25:00.221Z,53.50
2019-06-27T09:26:00.208Z,53.67
2019-06-27T09:27:00.225Z,53.17
2019-06-27T09:28:00.171Z,53.67
2019-06-27T09:29:00.175Z,52.95
2019-06-27T09:30:00.180Z,53.08
2019-06-27T09:31:00.149Z,53.25
2019-06-27T09:32:00.150Z,52.98
2019-06-27T09:33:00.162Z,52.58
2019-06-27T09:34:00.118Z,52.85
2019-06-27T09:35:05.144Z,52.56
2019-06-27T09:36:00.101Z,52.56
2019-06-27T09:37:00.101Z,52.04
2019-06-27T09:38:00.077Z,51.32
2019-06-27T09:39:00.051Z,51.03
2019-06-27T09:40:00.083Z,49.92
2019-06-27T09:41:00.040Z,48.52
2019-06-27T09:42:00.019Z,48.91
2019-06-27T09:43:00.012Z,48.20
2019-06-27T09:44:00.007Z,47.58
2019-06-27T09:45:00.018Z,47.27
2019-06-27T09:46:05.004Z,47.96
2019-06-27T09:46:59.993Z,48.37
2019-06-27T09:47:59.961Z,47.78
2019-06-27T09:48:59.959Z,47.88
2019-06-27T09:49:59.950Z,47.78
2019-06-27T09:50:59.952Z,48.08
2019-06-27T09:51:59.931Z,47.56
2019-06-27T09:52:59.904Z,46.97
2019-06-27T09:53:59.892Z,47.36
2019-06-27T09:54:59.902Z,47.27
2019-06-27T09:55:59.880Z,46.90
2019-06-27T09:57:04.881Z,47.39
2019-06-27T09:57:59.861Z,47.19
2019-06-27T09:58:59.843Z,47.09
2019-06-27T09:59:59.851Z,47.12
2019-06-27T10:00:59.833Z,46.75
2019-06-27T10:01:59.846Z,46.75
2019-06-27T10:02:59.797Z,46.75
2019-06-27T10:03:59.795Z,47.34
2019-06-27T10:04:59.803Z,47.63
2019-06-27T10:05:59.764Z,47.04
2019-06-27T10:06:59.780Z,47.04
2019-06-27T10:08:04.774Z,46.94
2019-06-27T10:08:59.741Z,46.65
2019-06-27T10:09:59.729Z,47.34
2019-06-27T10:10:59.729Z,46.55
2019-06-27T10:11:59.715Z,46.65
2019-06-27T10:12:59.686Z,47.14
2019-06-27T10:13:59.692Z,46.55
2019-06-27T10:14:59.666Z,46.65
2019-06-27T10:15:59.667Z,47.04
2019-06-27T10:16:59.650Z,46.45
2019-06-27T10:17:59.642Z,46.94
2019-06-27T10:19:04.656Z,46.84
2019-06-27T10:19:59.624Z,46.55
2019-06-27T10:20:59.645Z,46.55
2019-06-27T10:21:59.591Z,46.75
2019-06-27T10:22:59.586Z,46.06
2019-06-27T10:23:59.574Z,46.45
2019-06-27T10:24:59.568Z,46.15
2019-06-27T10:25:59.569Z,46.35
2019-06-27T10:26:59.545Z,46.06
2019-06-27T10:27:59.553Z,45.56
2019-06-27T10:28:59.518Z,46.25
2019-06-27T10:30:04.546Z,46.06
2019-06-27T10:30:59.510Z,45.07
2019-06-27T10:31:59.507Z,45.15
2019-06-27T10:33:00.397Z,44.56
2019-06-27T10:33:59.472Z,44.36
2019-06-27T10:34:59.477Z,44.76
2019-06-27T10:35:59.485Z,44.58
2019-06-27T10:36:59.454Z,45.05
2019-06-27T10:37:59.439Z,44.68
2019-06-27T10:38:59.425Z,44.95
2019-06-27T10:39:59.396Z,44.36
2019-06-27T10:41:04.427Z,44.46
2019-06-27T10:41:59.376Z,44.29
2019-06-27T10:42:59.382Z,44.95
2019-06-27T10:43:59.374Z,44.26
2019-06-27T10:44:59.354Z,44.56
2019-06-27T10:45:59.347Z,44.95
2019-06-27T10:46:59.324Z,44.26
2019-06-27T10:47:59.312Z,44.07
2019-06-27T10:48:59.360Z,43.75
2019-06-27T10:49:59.291Z,43.97
2019-06-27T10:50:59.315Z,43.95
2019-06-27T10:52:04.297Z,43.16
2019-06-27T10:52:59.264Z,43.85
2019-06-27T10:53:59.255Z,43.85
2019-06-27T10:54:59.273Z,42.96
2019-06-27T10:55:59.297Z,43.16
2019-06-27T10:56:59.221Z,42.86
2019-06-27T10:57:59.339Z,43.36
2019-06-27T10:58:59.203Z,43.14
2019-06-27T10:59:59.191Z,42.94
2019-06-27T11:00:59.197Z,42.94
2019-06-27T11:01:59.184Z,42.55
2019-06-27T11:03:14.880Z,43.33
2019-06-27T11:04:00.198Z,42.33
2019-06-27T11:04:59.157Z,42.14
2019-06-27T11:05:59.134Z,41.84
2019-06-27T11:06:59.142Z,41.64
2019-06-27T11:07:59.101Z,41.82
2019-06-27T11:08:59.093Z,40.84
2019-06-27T11:09:59.099Z,40.64
2019-06-27T11:10:59.083Z,40.62
2019-06-27T11:11:59.088Z,40.23
2019-06-27T11:12:59.681Z,39.72
2019-06-27T11:14:04.082Z,40.11
2019-06-27T11:14:59.951Z,38.80
2019-06-27T11:15:59.015Z,38.68
2019-06-27T11:16:59.029Z,38.08
2019-06-27T11:17:58.995Z,38.08
2019-06-27T11:18:58.990Z,38.86
2019-06-27T11:19:58.993Z,37.87
2019-06-27T11:20:58.961Z,37.27
2019-06-27T11:21:58.962Z,37.65
2019-06-27T11:22:58.937Z,37.04
2019-06-27T11:23:58.928Z,37.12
2019-06-27T11:25:03.955Z,36.91
2019-06-27T11:25:58.935Z,36.41
2019-06-27T11:26:58.994Z,36.00
2019-06-27T11:27:58.908Z,35.30
2019-06-27T11:28:58.907Z,34.22
2019-06-27T11:29:58.894Z,34.50
2019-06-27T11:30:58.898Z,34.21
2019-06-27T11:31:58.870Z,33.51
2019-06-27T11:32:58.843Z,33.11
2019-06-27T11:33:58.846Z,33.41
2019-06-27T11:34:58.827Z,33.11
2019-06-27T11:35:58.809Z,33.78
2019-06-27T11:36:59.010Z,32.91
2019-06-27T11:38:03.813Z,32.89
2019-06-27T11:38:58.817Z,32.99
2019-06-27T11:39:58.772Z,32.37
2019-06-27T11:40:58.768Z,31.97
2019-06-27T11:41:58.777Z,32.05
2019-06-27T11:42:58.743Z,32.24
2019-06-27T11:43:58.730Z,32.32
2019-06-27T11:44:58.721Z,32.13
2019-06-27T11:45:58.713Z,31.55
2019-06-27T11:46:58.740Z,31.16
2019-06-27T11:47:58.704Z,30.88
2019-06-27T11:49:03.706Z,31.10
2019-06-27T11:49:58.693Z,30.21
2019-06-27T11:50:58.687Z,30.32
2019-06-27T11:51:58.685Z,30.11
2019-06-27T11:52:58.646Z,29.82
2019-06-27T11:53:58.650Z,30.50
2019-06-27T11:54:58.626Z,30.12
2019-06-27T11:55:58.672Z,30.21
2019-06-27T11:56:58.608Z,30.11
2019-06-27T11:57:58.614Z,29.71
2019-06-27T11:58:58.596Z,28.74
2019-06-27T12:00:03.601Z,29.52
2019-06-27T12:00:58.599Z,28.75
2019-06-27T12:01:58.583Z,27.96
2019-06-27T12:02:58.578Z,28.04
2019-06-27T12:03:58.537Z,27.96
2019-06-27T12:04:58.533Z,27.79
2019-06-27T12:05:58.517Z,27.79
2019-06-27T12:06:58.517Z,27.72
2019-06-27T12:07:58.558Z,27.22
2019-06-27T12:08:58.521Z,27.98
2019-06-27T12:09:58.492Z,27.69
2019-06-27T12:11:03.494Z,27.19
2019-06-27T12:11:58.482Z,27.67
2019-06-27T12:12:58.472Z,27.47
2019-06-27T12:13:58.458Z,26.98
2019-06-27T12:14:58.438Z,26.97
2019-06-27T12:15:58.497Z,26.67
2019-06-27T12:16:58.432Z,26.57
2019-06-27T12:17:58.442Z,26.65
2019-06-27T12:18:58.407Z,26.65
2019-06-27T12:19:58.390Z,27.04
2019-06-27T12:20:58.378Z,27.14
2019-06-27T12:22:03.425Z,26.95
2019-06-27T12:22:58.375Z,26.37
2019-06-27T12:23:58.358Z,26.46
2019-06-27T12:24:58.368Z,25.30
2019-06-27T12:25:58.348Z,25.40
2019-06-27T12:26:58.326Z,25.51
2019-06-27T12:27:58.334Z,25.23
2019-06-27T12:28:58.342Z,26.50
2019-06-27T12:29:58.317Z,25.82
2019-06-27T12:30:58.302Z,26.11
2019-06-27T12:31:58.289Z,26.92
2019-06-27T12:33:03.304Z,27.22
2019-06-27T12:34:06.736Z,27.82
2019-06-27T12:34:59.266Z,28.23
2019-06-27T12:35:58.287Z,27.45
2019-06-27T12:36:58.229Z,28.26
2019-06-27T12:37:58.244Z,28.96
2019-06-27T12:38:58.246Z,29.56
2019-06-27T12:39:58.223Z,29.77
2019-06-27T12:40:58.195Z,30.27
2019-06-27T12:41:58.178Z,29.50
2019-06-27T12:42:58.187Z,30.09
2019-06-27T12:44:03.185Z,29.60
2019-06-27T12:44:58.171Z,30.40
2019-06-27T12:45:58.155Z,29.91
2019-06-27T12:46:58.126Z,29.93
2019-06-27T12:48:06.076Z,30.61
2019-06-27T12:48:59.113Z,30.33
2019-06-27T12:50:02.545Z,30.72
2019-06-27T12:50:58.106Z,30.15
2019-06-27T12:51:58.077Z,30.52